createdAt,value
2022-10-20T00:09:25.378Z,14.75
2022-10-20T00:19:26.880Z,15.73
2022-10-20T00:29:28.288Z,15.98
2022-10-20T00:39:30.616Z,16.35
2022-10-20T00:49:32.106Z,15.80
2022-10-20T00:59:33.422Z,15.07
2022-10-20T01:09:34.804Z,15.73
2022-10-20T01:19:36.135Z,15.50
2022-10-20T01:29:37.457Z,14.52
2022-10-20T01:39:38.767Z,15.00
2022-10-20T01:49:40.336Z,14.38
2022-10-20T01:59:41.650Z,13.70
2022-10-20T02:09:43.007Z,13.73
2022-10-20T02:19:44.716Z,13.90
2022-10-20T02:29:46.018Z,13.65
2022-10-20T02:39:47.360Z,14.35
2022-10-20T02:49:48.762Z,14.30
2022-10-20T02:59:50.163Z,13.50
2022-10-20T03:09:51.494Z,12.07
2022-10-20T03:19:52.805Z,13.23
2022-10-20T03:29:54.107Z,13.10
2022-10-20T03:39:55.493Z,11.88
2022-10-20T03:49:56.886Z,11.63
2022-10-20T03:59:58.253Z,12.63
2022-10-20T04:10:02.251Z,13.15
2022-10-20T04:20:03.691Z,11.80
2022-10-20T04:30:04.984Z,12.18
2022-10-20T04:40:06.344Z,12.77
2022-10-20T04:50:07.767Z,12.93
2022-10-20T05:00:09.100Z,12.45
2022-10-20T05:10:10.480Z,12.65
2022-10-20T05:20:11.876Z,12.75
2022-10-20T05:30:13.176Z,12.93
2022-10-20T05:40:14.618Z,13.75
2022-10-20T05:50:15.897Z,15.73
2022-10-20T06:00:19.094Z,17.17
2022-10-20T06:10:20.434Z,12.35
2022-10-20T06:20:21.774Z,13.65
2022-10-20T06:30:23.144Z,14.88
2022-10-20T06:40:24.490Z,13.50
2022-10-20T06:50:25.810Z,13.73
2022-10-20T07:00:27.202Z,13.55
2022-10-20T07:10:28.510Z,13.20
2022-10-20T07:20:29.725Z,13.45
2022-10-20T07:30:31.014Z,12.98
2022-10-20T07:40:32.417Z,12.23
2022-10-20T07:50:33.952Z,13.70
2022-10-20T08:00:35.353Z,12.45
2022-10-20T08:10:36.814Z,13.48
2022-10-20T08:20:38.190Z,11.60
2022-10-20T08:30:39.589Z,11.15
2022-10-20T08:40:40.947Z,11.45
2022-10-20T08:50:42.343Z,11.95
2022-10-20T09:00:43.723Z,11.38
2022-10-20T09:10:45.042Z,10.88
2022-10-20T09:20:46.508Z,11.07
2022-10-20T09:30:47.855Z,9.50
2022-10-20T09:40:49.387Z,11.23
2022-10-20T09:50:50.771Z,10.77
2022-10-20T10:00:52.164Z,10.90
2022-10-20T10:10:53.594Z,8.88
2022-10-20T10:20:54.943Z,9.23
2022-10-20T10:30:56.220Z,9.50
2022-10-20T10:40:57.580Z,9.60
2022-10-20T10:50:59.063Z,9.50
2022-10-20T11:01:00.437Z,8.60
2022-10-20T11:11:01.967Z,10.70
2022-10-20T11:21:03.353Z,9.80
2022-10-20T11:31:04.705Z,9.60
2022-10-20T11:41:06.274Z,8.93
2022-10-20T11:51:07.589Z,8.50
2022-10-20T12:01:08.825Z,9.52
2022-10-20T12:11:10.044Z,9.02
2022-10-20T12:21:11.416Z,9.85
2022-10-20T12:31:12.755Z,9.20
2022-10-20T12:41:14.304Z,8.55
2022-10-20T12:51:15.663Z,11.13
2022-10-20T13:01:17.139Z,10.00
2022-10-20T13:11:18.669Z,9.88
2022-10-20T13:21:20.838Z,11.48
2022-10-20T13:31:22.195Z,10.68
2022-10-20T13:41:24.008Z,11.63
2022-10-20T13:51:25.313Z,10.88
2022-10-20T14:01:26.761Z,8.80
2022-10-20T14:11:28.141Z,9.45
2022-10-20T14:21:29.709Z,11.07
2022-10-20T14:31:31.144Z,10.02
2022-10-20T14:41:32.494Z,9.40
2022-10-20T14:51:34.340Z,11.93
2022-10-20T15:01:35.749Z,10.38
2022-10-20T15:11:37.000Z,9.52
2022-10-20T15:21:38.216Z,10.68
2022-10-20T15:31:39.563Z,8.80
2022-10-20T15:41:40.947Z,8.40
2022-10-20T15:51:42.514Z,9.30
2022-10-20T16:01:43.750Z,12.88
2022-10-20T16:11:45.153Z,9.82
2022-10-20T16:21:46.547Z,10.05
2022-10-20T16:31:47.905Z,24.10
2022-10-20T16:41:49.129Z,18.77
2022-10-20T16:51:50.465Z,27.60
2022-10-20T17:01:51.682Z,27.00
2022-10-20T17:11:52.990Z,17.30
2022-10-20T17:21:56.256Z,17.23
2022-10-20T17:31:57.684Z,16.33
2022-10-20T17:41:59.127Z,24.38
2022-10-20T17:52:00.400Z,20.17
2022-10-20T18:02:01.862Z,19.10
2022-10-20T18:12:03.284Z,18.15
2022-10-20T18:22:04.597Z,20.27
2022-10-20T18:32:05.929Z,21.05
2022-10-20T18:42:07.233Z,22.77
2022-10-20T18:52:08.540Z,20.42
2022-10-20T19:02:09.865Z,23.15
2022-10-20T19:12:11.206Z,18.92
2022-10-20T19:22:12.638Z,18.33
2022-10-20T19:32:14.041Z,18.15
2022-10-20T19:42:15.384Z,17.30
2022-10-20T19:52:16.741Z,21.35
2022-10-20T20:02:18.143Z,25.55
2022-10-20T20:12:19.573Z,17.10
2022-10-20T20:22:20.971Z,17.63
2022-10-20T20:32:22.272Z,19.10
2022-10-20T20:42:23.531Z,35.13
2022-10-20T20:52:26.178Z,19.27
2022-10-20T21:02:27.483Z,20.67
2022-10-20T21:12:30.608Z,17.88
2022-10-20T21:22:34.574Z,15.38
2022-10-20T21:32:36.312Z,14.15
2022-10-20T21:42:38.037Z,14.75
2022-10-20T21:52:39.819Z,21.27
2022-10-20T22:02:41.610Z,31.30
2022-10-20T22:12:42.928Z,14.18
2022-10-20T22:22:44.239Z,13.43
2022-10-20T22:32:45.552Z,13.57
2022-10-20T22:42:46.935Z,14.73
2022-10-20T22:52:48.356Z,15.98
2022-10-20T23:02:49.657Z,13.40
2022-10-20T23:12:50.970Z,14.20
2022-10-20T23:22:52.338Z,13.40
2022-10-20T23:32:53.672Z,17.17
2022-10-20T23:42:55.158Z,15.95
2022-10-20T23:52:56.438Z,17.70
